Nearby METAR Reports

 

KCMH - Columbus, Ohio, USA
Distance from station: SW 5mi, 8km
Updated: Sat, 22-Sep-2018 11:51pm EDT
Mostly cloudy
Mostly cloudy
 Wind from NNE
Wind: NNE 5 mph , 7 km/h
Temperature: 57°F , 14°C
Dew Point: 54°F , 12°C
Humidity: 88%
Barometer: 30.20 inHg , 1022.7 hPa
Clouds: Mostly cloudy
Visibility: 10 miles , 16 km
Cloud details: Partly cloudy 14000 ft
Mostly cloudy 20000 ft
2018/09/23 03:51 KCMH 230351Z 02004KT 10SM SCT140 BKN200 14/12 A3020 RMK AO2 SLP226 T01390117
KOSU - Columbus/St Univ, Ohio, USA
Distance from station: W 14mi, 23km
Updated: Sat, 22-Sep-2018 11:53pm EDT
Clear
Clear
 Wind from NE
Wind: NE 5 mph , 7 km/h
Temperature: 55°F , 13°C
Dew Point: 52°F , 11°C
Humidity: 88%
Barometer: 30.21 inHg , 1023 hPa
Clouds: Clear
Visibility: 10 miles , 16 km
2018/09/23 03:53 KOSU 230353Z AUTO 05004KT 10SM CLR 13/11 A3021 RMK AO2 SLP228 T01280106
 
KLCK - Rickenbacker Ang, Ohio, USA
Distance from station: SSW 17mi, 27km
Updated: Sun, 23-Sep-2018 12:15am EDT
Clear
Clear
 Wind from NNE
Wind: NNE 7 mph , 11 km/h
Temperature: 55°F , 13°C
Dew Point: 54°F , 12°C
Humidity: 94%
Barometer: 30.20 inHg , 1022.7 hPa
Clouds: Clear
Visibility: 10 miles , 16 km
2018/09/23 04:15 KLCK 230415Z AUTO 03006KT 10SM CLR 13/12 A3020 RMK AO2 T01290119
KVTA - Newark, Ohio, USA
Distance from station: E 19mi, 30km
Updated: Sat, 22-Sep-2018 11:54pm EDT
Clear
Clear
 Wind from calm
Wind: Calm
Temperature: 57°F , 14°C
Dew Point: 54°F , 12°C
Humidity: 88%
Barometer: 30.21 inHg , 1023 hPa
Clouds: Clear
Visibility: 10 miles , 16 km
2018/09/23 03:54 KVTA 230354Z AUTO 00000KT 10SM CLR 14/12 A3021 RMK AO2 SLP229 T01390117
 
KTZR - Columbus/Bolton, Ohio, USA
Distance from station: WSW 20mi, 31km
Updated: Sun, 23-Sep-2018 12:15am EDT
Clear
Clear
 Wind from NE
Wind: NE 3 mph , 6 km/h
Temperature: 55°F , 13°C
Dew Point: 52°F , 11°C
Humidity: 88%
Barometer: 30.21 inHg , 1023 hPa
Clouds: Clear
Visibility: 10 miles , 16 km
2018/09/23 04:15 KTZR 230415Z AUTO 04003KT 10SM CLR 13/11 A3021 RMK AO2 T01300112
KLHQ - Lancaster, Ohio, USA
Distance from station: SSE 22mi, 36km
Updated: Sat, 22-Sep-2018 11:53pm EDT
Few Clouds
Few Clouds
 Wind from calm
Wind: Calm
Temperature: 57°F , 14°C
Dew Point: 55°F , 13°C
Humidity: 94%
Barometer: 30.21 inHg , 1023 hPa
Clouds: Few Clouds
Visibility: 10 miles , 16 km
Cloud details: Few Clouds 8000 ft
2018/09/23 03:53 KLHQ 230353Z AUTO 00000KT 10SM FEW080 14/13 A3021 RMK AO2 SLP227 T01390133 $
 
KDLZ - Delaware, Ohio, USA
Distance from station: NW 23mi, 36km
Updated: Sun, 23-Sep-2018 12:15am EDT
Clear
Clear
 Wind from NE
Wind: NE 5 mph , 7 km/h
Temperature: 54°F , 12°C
Dew Point: 50°F , 10°C
Humidity: 88%
Barometer: 30.21 inHg , 1023 hPa
Clouds: Clear
Visibility: 10 miles , 16 km
2018/09/23 04:15 KDLZ 230415Z AUTO 05004KT 10SM CLR 12/10 A3021 RMK AO2
K4I3 - Mt Vernon/Knox, Ohio, USA
Distance from station: NE 25mi, 40km
Updated: Sun, 23-Sep-2018 12:16am EDT
Clear
Clear
 Wind from calm
Wind: Calm
Temperature: 54°F , 12°C
Dew Point: 54°F , 12°C
Humidity: 100%
Barometer: 30.23 inHg , 1023.7 hPa
Clouds: Clear
Visibility: 10 miles , 16 km
2018/09/23 04:16 K4I3 230416Z AUTO 00000KT 10SM CLR 12/12 A3023 RMK AO2
 
KMRT - Marysville, Ohio, USA
Distance from station: WNW 30mi, 49km
Updated: Sun, 23-Sep-2018 12:15am EDT
Clear
Clear
 Wind from ENE
Wind: ENE 3 mph , 6 km/h
Temperature: 52°F , 11°C
Dew Point: 50°F , 10°C
Humidity: 94%
Barometer: 30.21 inHg , 1023 hPa
Clouds: Clear
Visibility: 10 miles , 16 km
2018/09/23 04:15 KMRT 230415Z AUTO 06003KT 10SM CLR 11/10 A3021 RMK AO2 T01120101
KMNN - Marion, Ohio, USA
Distance from station: NNW 41mi, 67km
Updated: Sat, 22-Sep-2018 11:53pm EDT
Clear
Clear
 Wind from NE
Wind: NE 3 mph , 6 km/h
Temperature: 54°F , 12°C
Dew Point: 48°F , 9°C
Humidity: 82%
Barometer: 30.22 inHg , 1023.4 hPa
Clouds: Clear
Visibility: 10 miles , 16 km
2018/09/23 03:53 KMNN 230353Z AUTO 04003KT 10SM CLR 12/09 A3022 RMK AO2 SLP235 T01170094 TSNO
 
KZZV - Zanesville, Ohio, USA
Distance from station: E 49mi, 79km
Updated: Sat, 22-Sep-2018 11:53pm EDT
Overcast
Overcast
 Wind from calm
Wind: Calm
Temperature: 57°F , 14°C
Dew Point: 54°F , 12°C
Humidity: 88%
Barometer: 30.21 inHg , 1023 hPa
Clouds: Overcast
Visibility: 10 miles , 16 km
Cloud details: Overcast 9000 ft
2018/09/23 03:53 KZZV 230353Z AUTO 00000KT 10SM OVC090 14/12 A3021 RMK AO2 SLP227 T01390117